createdAt,value
2018-08-13T00:00:46.177Z,0.00
2018-08-13T00:01:46.179Z,0.00
2018-08-13T00:03:39.113Z,0.00
2018-08-13T00:04:39.120Z,0.00
2018-08-13T00:06:32.071Z,0.00
2018-08-13T00:07:32.068Z,0.00
2018-08-13T00:09:25.011Z,0.00
2018-08-13T00:10:25.017Z,0.00
2018-08-13T00:12:17.967Z,0.00
2018-08-13T00:13:17.958Z,0.00
2018-08-13T00:15:10.894Z,0.00
2018-08-13T00:16:10.912Z,0.00
2018-08-13T00:18:03.859Z,0.00
2018-08-13T00:19:03.858Z,0.00
2018-08-13T00:20:56.820Z,0.00
2018-08-13T00:21:56.809Z,0.00
2018-08-13T00:23:49.733Z,0.00
2018-08-13T00:24:49.752Z,0.00
2018-08-13T00:26:42.702Z,0.00
2018-08-13T00:27:42.703Z,0.00
2018-08-13T00:29:35.626Z,0.00
2018-08-13T00:30:35.643Z,0.00
2018-08-13T00:32:28.595Z,0.00
2018-08-13T00:33:28.593Z,0.00
2018-08-13T00:35:21.528Z,0.00
2018-08-13T00:36:21.538Z,0.00
2018-08-13T00:38:14.497Z,0.00
2018-08-13T00:39:14.502Z,0.00
2018-08-13T00:41:07.447Z,0.00
2018-08-13T00:42:07.444Z,0.00
2018-08-13T00:44:00.374Z,0.00
2018-08-13T00:45:00.389Z,0.00
2018-08-13T00:46:53.339Z,0.00
2018-08-13T00:47:53.332Z,0.00
2018-08-13T00:49:46.270Z,0.00
2018-08-13T00:50:46.286Z,0.00
2018-08-13T00:52:39.251Z,0.00
2018-08-13T00:53:39.239Z,0.00
2018-08-13T00:55:32.172Z,0.00
2018-08-13T00:56:32.189Z,0.00
2018-08-13T00:58:25.134Z,0.00
2018-08-13T00:59:25.136Z,0.00
2018-08-13T01:01:18.095Z,0.00
2018-08-13T01:02:18.078Z,0.00
2018-08-13T01:04:11.009Z,0.00
2018-08-13T01:05:11.021Z,0.00
2018-08-13T01:07:03.979Z,0.00
2018-08-13T01:08:03.971Z,0.00
2018-08-13T01:09:56.905Z,0.00
2018-08-13T01:10:56.919Z,0.00
2018-08-13T01:12:49.870Z,0.00
2018-08-13T01:13:49.867Z,0.00
2018-08-13T01:15:42.796Z,0.00
2018-08-13T01:16:42.812Z,0.00
2018-08-13T01:18:35.766Z,0.00
2018-08-13T01:19:35.761Z,0.00
2018-08-13T01:21:28.710Z,0.00
2018-08-13T01:22:28.710Z,0.00
2018-08-13T01:24:21.639Z,0.00
2018-08-13T01:25:21.655Z,0.00
2018-08-13T01:27:14.605Z,0.00
2018-08-13T01:28:14.605Z,0.00
2018-08-13T01:30:07.530Z,0.00
2018-08-13T01:31:07.544Z,0.00
2018-08-13T01:33:00.510Z,0.00
2018-08-13T01:34:00.499Z,0.00
2018-08-13T01:35:53.425Z,0.00
2018-08-13T01:36:53.441Z,0.00
2018-08-13T01:38:46.394Z,0.00
2018-08-13T01:39:46.391Z,0.00
2018-08-13T01:41:39.345Z,0.00
2018-08-13T01:42:39.341Z,0.00
2018-08-13T01:44:32.272Z,0.00
2018-08-13T01:45:32.285Z,0.00
2018-08-13T01:47:25.233Z,0.00
2018-08-13T01:48:25.230Z,0.00
2018-08-13T01:50:18.158Z,0.00
2018-08-13T01:51:18.175Z,0.00
2018-08-13T01:53:11.132Z,0.00
2018-08-13T01:54:11.126Z,0.00
2018-08-13T02:23:32.994Z,0.00
2018-08-13T02:24:32.984Z,0.00
2018-08-13T02:26:25.904Z,0.00
2018-08-13T02:27:25.916Z,0.00
2018-08-13T02:29:18.853Z,0.00
2018-08-13T02:30:18.845Z,0.00
2018-08-13T02:32:11.783Z,0.00
2018-08-13T02:33:11.780Z,0.00
2018-08-13T02:35:04.701Z,0.00
2018-08-13T02:36:04.715Z,0.00
2018-08-13T02:37:57.659Z,0.00
2018-08-13T02:38:57.702Z,0.00
2018-08-13T02:40:50.580Z,0.00
2018-08-13T02:41:50.592Z,0.00
2018-08-13T02:43:43.539Z,0.00
2018-08-13T02:44:43.533Z,0.00
2018-08-13T02:46:36.459Z,0.00
2018-08-13T02:47:36.477Z,0.00
2018-08-13T02:49:29.422Z,0.00
2018-08-13T02:50:29.415Z,0.00
2018-08-13T02:52:22.363Z,0.00
2018-08-13T02:53:22.361Z,0.00
2018-08-13T02:55:15.288Z,0.00
2018-08-13T02:56:15.301Z,0.00
2018-08-13T02:58:08.268Z,0.00
2018-08-13T02:59:08.247Z,0.00
2018-08-13T03:01:01.177Z,0.00
2018-08-13T03:02:01.182Z,0.00
2018-08-13T03:03:54.135Z,0.00
2018-08-13T03:04:54.130Z,0.00
2018-08-13T03:06:47.061Z,0.00
2018-08-13T03:07:47.081Z,0.00
2018-08-13T03:09:40.027Z,0.00
2018-08-13T03:10:40.025Z,0.00
2018-08-13T03:12:32.988Z,0.00
2018-08-13T03:13:32.970Z,0.00
2018-08-13T03:15:25.908Z,0.00
2018-08-13T03:16:25.917Z,0.00
2018-08-13T03:18:18.867Z,0.00
2018-08-13T03:19:18.863Z,0.00
2018-08-13T03:21:11.800Z,0.00
2018-08-13T03:22:11.814Z,0.00
2018-08-13T03:24:04.768Z,0.00
2018-08-13T03:25:04.760Z,0.00
2018-08-13T03:26:57.689Z,0.00
2018-08-13T03:27:57.709Z,0.00
2018-08-13T03:29:50.658Z,0.00
2018-08-13T03:30:50.653Z,0.00
2018-08-13T03:32:43.617Z,0.00
2018-08-13T03:33:43.599Z,0.00
2018-08-13T03:35:36.529Z,0.00
2018-08-13T03:36:36.549Z,0.00
2018-08-13T03:38:29.499Z,0.00
2018-08-13T03:39:29.496Z,0.00
2018-08-13T03:41:22.429Z,0.00
2018-08-13T03:42:22.445Z,0.00
2018-08-13T03:44:15.396Z,0.00
2018-08-13T03:45:15.386Z,0.00
2018-08-13T03:47:08.322Z,0.00
2018-08-13T03:48:08.341Z,0.00
2018-08-13T03:50:01.289Z,0.00
2018-08-13T03:51:01.284Z,0.00
2018-08-13T03:52:54.248Z,0.00
2018-08-13T03:53:54.304Z,0.00
2018-08-13T03:55:47.161Z,0.00
2018-08-13T03:56:47.175Z,0.00
2018-08-13T03:58:40.127Z,0.00
2018-08-13T03:59:40.122Z,0.00
2018-08-13T04:01:33.048Z,0.00
2018-08-13T04:02:33.065Z,4.00
2018-08-13T04:04:26.016Z,0.00
2018-08-13T04:05:26.012Z,4.00
2018-08-13T04:07:18.941Z,0.00
2018-08-13T04:08:18.962Z,0.00
2018-08-13T04:10:11.907Z,4.00
2018-08-13T04:11:11.909Z,0.00
2018-08-13T04:13:04.835Z,4.00
2018-08-13T04:14:04.851Z,4.00
2018-08-13T04:15:57.804Z,4.00
2018-08-13T04:16:57.798Z,8.00
2018-08-13T04:18:50.750Z,8.00
2018-08-13T04:19:50.738Z,8.00
2018-08-13T04:21:43.672Z,8.00
2018-08-13T04:22:43.701Z,8.00
2018-08-13T04:24:36.642Z,12.00
2018-08-13T04:25:36.639Z,16.00
2018-08-13T04:27:29.569Z,16.00
2018-08-13T04:28:29.577Z,20.00
2018-08-13T04:30:22.533Z,24.00
2018-08-13T04:31:22.521Z,24.00
2018-08-13T04:33:15.454Z,28.00
2018-08-13T04:34:15.474Z,28.00
2018-08-13T04:36:08.421Z,32.00
2018-08-13T04:37:08.413Z,36.00
2018-08-13T04:39:01.372Z,44.00
2018-08-13T04:40:01.364Z,44.00
2018-08-13T04:41:54.291Z,56.00
2018-08-13T04:42:54.307Z,60.00
2018-08-13T04:44:47.249Z,72.00
2018-08-13T04:45:47.247Z,84.00
2018-08-13T04:47:40.178Z,100.00
2018-08-13T04:48:40.193Z,112.00
2018-08-13T04:50:33.143Z,128.00
2018-08-13T04:51:33.138Z,132.00
2018-08-13T04:53:26.060Z,116.00
2018-08-13T04:54:26.078Z,104.00
2018-08-13T04:56:19.029Z,84.00
2018-08-13T04:57:19.025Z,76.00
2018-08-13T04:59:11.970Z,64.00
2018-08-13T05:00:11.968Z,64.00
2018-08-13T05:02:04.895Z,60.00
2018-08-13T05:03:04.909Z,60.00
2018-08-13T05:04:57.855Z,60.00
2018-08-13T05:05:57.851Z,64.00
2018-08-13T05:07:50.793Z,68.00
2018-08-13T05:08:50.818Z,64.00
2018-08-13T05:10:43.750Z,76.00
2018-08-13T05:11:43.745Z,92.00
2018-08-13T05:13:36.677Z,104.00
2018-08-13T05:14:36.708Z,96.00
2018-08-13T05:16:29.653Z,88.00
2018-08-13T05:17:29.644Z,92.00
2018-08-13T05:19:22.591Z,88.00
2018-08-13T05:20:22.587Z,84.00
2018-08-13T05:22:15.524Z,84.00
2018-08-13T05:23:15.561Z,84.00
2018-08-13T05:25:08.484Z,96.00
2018-08-13T05:26:08.478Z,104.00
2018-08-13T05:28:01.401Z,112.00
2018-08-13T05:29:01.417Z,120.00
2018-08-13T05:30:54.366Z,124.00
2018-08-13T05:31:54.362Z,128.00
2018-08-13T05:33:47.286Z,132.00
2018-08-13T05:34:47.305Z,140.00
2018-08-13T05:36:40.256Z,132.00
2018-08-13T05:37:40.247Z,124.00
2018-08-13T05:39:33.203Z,116.00
2018-08-13T05:40:33.196Z,108.00
2018-08-13T05:42:26.122Z,108.00
2018-08-13T05:43:26.142Z,112.00
2018-08-13T05:45:19.087Z,112.00
2018-08-13T05:46:19.081Z,112.00
2018-08-13T05:48:12.006Z,124.00
2018-08-13T05:49:12.021Z,136.00
2018-08-13T05:51:04.969Z,148.00
2018-08-13T05:52:04.964Z,152.00
2018-08-13T05:53:57.890Z,172.00
2018-08-13T05:54:57.905Z,184.00
2018-08-13T05:56:50.854Z,200.00
2018-08-13T05:57:50.848Z,204.00
2018-08-13T05:59:43.791Z,216.00
2018-08-13T06:00:43.788Z,224.00
2018-08-13T06:02:36.714Z,264.00
2018-08-13T06:03:36.729Z,284.00
2018-08-13T06:05:29.677Z,356.00
2018-08-13T06:06:29.667Z,412.00
2018-08-13T06:08:22.598Z,544.00
2018-08-13T06:09:22.613Z,604.00
2018-08-13T06:11:15.622Z,716.00
2018-08-13T06:12:15.552Z,780.00
2018-08-13T06:14:08.476Z,916.00
2018-08-13T06:15:08.496Z,984.00
2018-08-13T06:17:01.441Z,1048.00
2018-08-13T06:18:01.446Z,1064.00
2018-08-13T06:19:54.405Z,1092.00
2018-08-13T06:20:54.398Z,1128.00
2018-08-13T06:22:47.322Z,1348.00
2018-08-13T06:23:47.338Z,1476.00
2018-08-13T06:25:40.282Z,1616.00
2018-08-13T06:26:40.284Z,1644.00
2018-08-13T06:28:33.214Z,1716.00
2018-08-13T06:29:33.222Z,1720.00
2018-08-13T06:31:26.172Z,1672.00
2018-08-13T06:32:26.165Z,1652.00
2018-08-13T06:34:19.091Z,1572.00
2018-08-13T06:35:19.107Z,1564.00
2018-08-13T06:37:12.101Z,1544.00
2018-08-13T06:38:12.051Z,1548.00
2018-08-13T06:40:05.004Z,1576.00
2018-08-13T06:41:04.992Z,1612.00
2018-08-13T06:42:57.920Z,1636.00
2018-08-13T06:43:57.932Z,1644.00
2018-08-13T06:45:50.881Z,1648.00
2018-08-13T06:46:50.874Z,1656.00
2018-08-13T06:48:43.807Z,1624.00
2018-08-13T06:49:43.818Z,1556.00
2018-08-13T06:51:36.768Z,1496.00
2018-08-13T06:52:36.764Z,1508.00
2018-08-13T06:54:29.700Z,1504.00
2018-08-13T06:55:29.717Z,1512.00
2018-08-13T06:57:22.671Z,1628.00
2018-08-13T06:58:22.664Z,1680.00
2018-08-13T07:00:15.611Z,1752.00
2018-08-13T07:01:15.611Z,1748.00
2018-08-13T07:03:08.534Z,1568.00
2018-08-13T07:04:08.549Z,1472.00
2018-08-13T07:06:01.497Z,1400.00
2018-08-13T07:07:01.494Z,1412.00
2018-08-13T07:08:54.429Z,1572.00
2018-08-13T07:09:54.446Z,1636.00
2018-08-13T07:11:47.387Z,1696.00
2018-08-13T07:12:47.383Z,1692.00
2018-08-13T07:14:40.316Z,1812.00
2018-08-13T07:15:40.356Z,1900.00
2018-08-13T07:17:33.285Z,2068.00
2018-08-13T07:18:33.279Z,2116.00
2018-08-13T07:20:26.223Z,2224.00
2018-08-13T07:21:26.221Z,2228.00
2018-08-13T07:23:19.149Z,2220.00
2018-08-13T07:24:19.166Z,2308.00
2018-08-13T07:26:12.118Z,2572.00
2018-08-13T07:27:12.111Z,2692.00
2018-08-13T07:29:05.041Z,2908.00
2018-08-13T07:30:05.053Z,2988.00
2018-08-13T07:31:58.002Z,3108.00
2018-08-13T07:32:58.002Z,3116.00
2018-08-13T07:34:50.931Z,3148.00
2018-08-13T07:35:50.951Z,3172.00
2018-08-13T07:37:43.904Z,3160.00
2018-08-13T07:38:43.899Z,3156.00
2018-08-13T07:40:36.844Z,3176.00
2018-08-13T07:41:36.847Z,3192.00
2018-08-13T07:43:29.776Z,3300.00
2018-08-13T07:44:29.787Z,3312.00
2018-08-13T07:46:22.785Z,3240.00
2018-08-13T07:47:22.731Z,3168.00
2018-08-13T07:49:15.663Z,3084.00
2018-08-13T07:50:15.679Z,3108.00
2018-08-13T07:52:08.625Z,3308.00
2018-08-13T07:53:08.623Z,3580.00
2018-08-13T07:55:01.553Z,3456.00
2018-08-13T07:56:01.569Z,3624.00
2018-08-13T07:57:54.524Z,3940.00
2018-08-13T07:58:54.521Z,4072.00
2018-08-13T08:00:47.471Z,4204.00
2018-08-13T08:01:47.464Z,4260.00
2018-08-13T08:03:40.396Z,4256.00
2018-08-13T08:04:40.412Z,4352.00
2018-08-13T08:06:33.359Z,4064.00
2018-08-13T08:07:33.355Z,3296.00
2018-08-13T08:09:26.295Z,3004.00
2018-08-13T08:10:26.308Z,2528.00
2018-08-13T08:12:19.265Z,2012.00
2018-08-13T08:13:19.264Z,2256.00
2018-08-13T08:15:12.203Z,3592.00
2018-08-13T08:16:12.217Z,4248.00
2018-08-13T08:18:05.165Z,4936.00
2018-08-13T08:19:05.159Z,5304.00
2018-08-13T08:20:58.110Z,4584.00
2018-08-13T08:21:58.105Z,3800.00
2018-08-13T08:23:51.039Z,3444.00
2018-08-13T08:24:51.055Z,3768.00
2018-08-13T08:26:44.005Z,4616.00
2018-08-13T08:27:44.007Z,5952.00
2018-08-13T08:29:36.934Z,6220.00
2018-08-13T08:30:36.949Z,5560.00
2018-08-13T08:32:29.901Z,4540.00
2018-08-13T08:33:29.897Z,4668.00
2018-08-13T08:35:22.833Z,5412.00
2018-08-13T08:36:22.849Z,5644.00
2018-08-13T08:38:15.800Z,5288.00
2018-08-13T08:39:15.800Z,4784.00
2018-08-13T08:41:08.762Z,4656.00
2018-08-13T08:42:08.745Z,4516.00
2018-08-13T08:44:01.686Z,4372.00
2018-08-13T08:45:01.712Z,4452.00
2018-08-13T08:46:54.661Z,3868.00
2018-08-13T08:47:54.661Z,3424.00
2018-08-13T08:49:47.594Z,3700.00
2018-08-13T08:50:47.612Z,3064.00
2018-08-13T08:52:40.565Z,2396.00
2018-08-13T08:53:40.676Z,2016.00
2018-08-13T08:55:33.509Z,2128.00
2018-08-13T08:56:33.519Z,2716.00
2018-08-13T08:58:26.474Z,2824.00
2018-08-13T08:59:26.469Z,2496.00
2018-08-13T09:01:19.406Z,2832.00
2018-08-13T09:02:19.420Z,3392.00
2018-08-13T09:04:12.385Z,4360.00
2018-08-13T09:05:12.373Z,4460.00
2018-08-13T09:07:05.324Z,5788.00
2018-08-13T09:08:05.320Z,5664.00
2018-08-13T09:09:58.259Z,5264.00
2018-08-13T09:10:58.275Z,5024.00
2018-08-13T09:12:51.226Z,4012.00
2018-08-13T09:13:51.231Z,4196.00
2018-08-13T09:15:44.166Z,4336.00
2018-08-13T09:16:44.181Z,4056.00
2018-08-13T09:18:37.139Z,3516.00
2018-08-13T09:19:37.133Z,3156.00
2018-08-13T09:21:30.066Z,2212.00
2018-08-13T09:22:30.087Z,2052.00
2018-08-13T09:24:23.045Z,2536.00
2018-08-13T09:25:23.051Z,2488.00
2018-08-13T09:27:15.996Z,2824.00
2018-08-13T09:28:15.994Z,3720.00
2018-08-13T09:30:08.930Z,4412.00
2018-08-13T09:31:08.950Z,4136.00
2018-08-13T09:33:01.912Z,2964.00
2018-08-13T09:34:01.908Z,2708.00
2018-08-13T09:35:54.843Z,2568.00
2018-08-13T09:36:54.866Z,3064.00
2018-08-13T09:38:47.821Z,3420.00
2018-08-13T09:39:47.829Z,3432.00
2018-08-13T09:41:40.761Z,2856.00
2018-08-13T09:42:40.779Z,2836.00
2018-08-13T09:44:33.729Z,2756.00
2018-08-13T09:45:33.734Z,2288.00
2018-08-13T09:47:26.685Z,2628.00
2018-08-13T09:48:26.684Z,2812.00
2018-08-13T09:50:19.618Z,1564.00
2018-08-13T09:51:19.640Z,1412.00
2018-08-13T09:53:12.594Z,1812.00
2018-08-13T09:54:12.594Z,2292.00
2018-08-13T09:56:05.532Z,2812.00
2018-08-13T09:57:05.551Z,2496.00
2018-08-13T09:58:58.504Z,2088.00
2018-08-13T09:59:58.505Z,2184.00
2018-08-13T10:01:51.441Z,2484.00
2018-08-13T10:02:51.459Z,2108.00
2018-08-13T10:04:44.413Z,1292.00
2018-08-13T10:05:44.410Z,884.00
2018-08-13T10:07:37.366Z,740.00
2018-08-13T10:08:37.359Z,1020.00
2018-08-13T10:10:30.292Z,1852.00
2018-08-13T10:11:30.311Z,1928.00
2018-08-13T10:13:23.262Z,1872.00
2018-08-13T10:14:23.259Z,2260.00
2018-08-13T10:16:16.196Z,3416.00
2018-08-13T10:17:16.216Z,4248.00
2018-08-13T10:19:09.167Z,4800.00
2018-08-13T10:20:09.164Z,4528.00
2018-08-13T10:22:02.096Z,4436.00
2018-08-13T10:23:02.115Z,4356.00
2018-08-13T10:24:55.065Z,4196.00
2018-08-13T10:25:55.066Z,4140.00
2018-08-13T10:27:48.036Z,3084.00
2018-08-13T10:28:48.016Z,2672.00
2018-08-13T10:30:40.951Z,1864.00
2018-08-13T10:31:40.968Z,2124.00
2018-08-13T10:33:33.918Z,2304.00
2018-08-13T10:34:33.916Z,2272.00
2018-08-13T10:36:26.849Z,3372.00
2018-08-13T10:37:26.885Z,4112.00
2018-08-13T10:39:19.821Z,4512.00
2018-08-13T10:40:19.822Z,4612.00
2018-08-13T10:42:12.766Z,6004.00
2018-08-13T10:43:12.781Z,5872.00
2018-08-13T10:45:05.746Z,5324.00
2018-08-13T10:46:05.741Z,4772.00
2018-08-13T10:47:58.693Z,3368.00
2018-08-13T10:48:58.694Z,2652.00
2018-08-13T10:50:51.627Z,2020.00
2018-08-13T10:51:51.643Z,1944.00
2018-08-13T10:53:44.600Z,1348.00
2018-08-13T10:54:44.596Z,1516.00
2018-08-13T10:56:37.538Z,2524.00
2018-08-13T10:57:37.557Z,3260.00
2018-08-13T10:59:30.509Z,3276.00
2018-08-13T11:00:30.509Z,3364.00
2018-08-13T11:02:23.440Z,3556.00
2018-08-13T11:03:23.460Z,3292.00
2018-08-13T11:05:16.413Z,3188.00
2018-08-13T11:06:16.413Z,3084.00
2018-08-13T11:08:09.368Z,3104.00
2018-08-13T11:09:09.368Z,3564.00
2018-08-13T11:11:02.302Z,2976.00
2018-08-13T11:12:02.324Z,3272.00
2018-08-13T11:13:55.275Z,4112.00
2018-08-13T11:14:55.274Z,4020.00
2018-08-13T11:16:48.224Z,3596.00
2018-08-13T11:17:48.240Z,3096.00
2018-08-13T11:19:41.196Z,2392.00
2018-08-13T11:20:41.193Z,2492.00
2018-08-13T11:22:34.142Z,2780.00
2018-08-13T11:23:34.162Z,2972.00
2018-08-13T11:25:27.130Z,2904.00
2018-08-13T11:26:27.119Z,2880.00
2018-08-13T11:28:20.073Z,3408.00
2018-08-13T11:29:20.071Z,3616.00
2018-08-13T11:31:13.053Z,3624.00
2018-08-13T11:32:13.025Z,3532.00
2018-08-13T11:34:05.988Z,3316.00
2018-08-13T11:35:05.978Z,3204.00
2018-08-13T11:36:58.920Z,3120.00
2018-08-13T11:37:58.934Z,3196.00
2018-08-13T11:39:51.891Z,3164.00
2018-08-13T11:40:51.888Z,2940.00
2018-08-13T11:42:44.822Z,2524.00
2018-08-13T11:43:44.843Z,2392.00
2018-08-13T11:45:37.791Z,2152.00
2018-08-13T11:46:37.792Z,2056.00
2018-08-13T11:48:30.761Z,1996.00
2018-08-13T11:49:30.755Z,2012.00
2018-08-13T11:51:23.699Z,2156.00
2018-08-13T11:52:23.767Z,2168.00
2018-08-13T11:54:16.667Z,2156.00
2018-08-13T11:55:16.669Z,2232.00
2018-08-13T11:57:09.615Z,2092.00
2018-08-13T11:58:09.637Z,1776.00
2018-08-13T12:00:02.583Z,1308.00
2018-08-13T12:01:02.637Z,1164.00
2018-08-13T12:02:55.520Z,972.00
2018-08-13T12:03:55.540Z,1196.00
2018-08-13T12:05:48.493Z,2280.00
2018-08-13T12:06:48.492Z,3228.00
2018-08-13T12:08:41.443Z,4076.00
2018-08-13T12:09:41.438Z,4316.00
2018-08-13T12:11:34.380Z,4492.00
2018-08-13T12:12:34.391Z,3820.00
2018-08-13T12:14:27.347Z,3956.00
2018-08-13T12:15:27.397Z,3220.00
2018-08-13T12:17:20.273Z,2620.00
2018-08-13T12:18:20.297Z,2440.00
2018-08-13T12:20:13.247Z,2244.00
2018-08-13T12:21:13.244Z,2340.00
2018-08-13T12:23:06.180Z,2584.00
2018-08-13T12:24:06.200Z,2784.00
2018-08-13T12:25:59.156Z,3164.00
2018-08-13T12:26:59.157Z,2940.00
2018-08-13T12:28:52.115Z,3020.00
2018-08-13T12:29:52.115Z,3112.00
2018-08-13T12:31:45.046Z,3080.00
2018-08-13T12:32:45.069Z,3316.00
2018-08-13T12:34:38.017Z,4836.00
2018-08-13T12:35:38.013Z,5276.00
2018-08-13T12:37:30.950Z,5496.00
2018-08-13T12:38:30.964Z,5644.00
2018-08-13T12:40:23.947Z,5844.00
2018-08-13T12:41:23.914Z,5708.00
2018-08-13T12:43:16.850Z,5708.00
2018-08-13T12:44:16.869Z,5740.00
2018-08-13T12:46:09.826Z,5644.00
2018-08-13T12:47:09.825Z,5488.00
2018-08-13T12:49:02.780Z,5056.00
2018-08-13T12:50:02.779Z,4940.00
2018-08-13T12:51:55.720Z,2768.00
2018-08-13T12:52:55.735Z,4648.00
2018-08-13T12:54:48.690Z,2856.00
2018-08-13T12:55:48.690Z,2772.00
2018-08-13T12:57:41.670Z,3008.00
2018-08-13T12:58:41.659Z,4600.00
2018-08-13T13:00:34.609Z,4400.00
2018-08-13T13:01:34.610Z,5660.00
2018-08-13T13:03:27.539Z,5188.00
2018-08-13T13:04:27.564Z,4620.00
2018-08-13T13:06:20.519Z,2548.00
2018-08-13T13:07:20.509Z,2432.00
2018-08-13T13:09:13.571Z,2128.00
2018-08-13T13:10:13.496Z,2104.00
2018-08-13T13:12:06.452Z,1852.00
2018-08-13T13:13:06.453Z,1844.00
2018-08-13T13:14:59.504Z,1516.00
2018-08-13T13:15:59.388Z,876.00
2018-08-13T13:17:52.396Z,240.00
2018-08-13T13:18:52.480Z,228.00
2018-08-13T13:20:45.495Z,204.00
2018-08-13T13:21:45.448Z,192.00
2018-08-13T13:23:38.527Z,236.00
2018-08-13T13:24:38.623Z,284.00
2018-08-13T13:26:31.462Z,376.00
2018-08-13T13:27:31.465Z,420.00
2018-08-13T13:29:24.410Z,488.00
2018-08-13T13:30:24.412Z,500.00
2018-08-13T13:32:17.343Z,524.00
2018-08-13T13:33:17.357Z,544.00
2018-08-13T13:35:10.323Z,576.00
2018-08-13T13:36:10.320Z,608.00
2018-08-13T13:38:03.256Z,644.00
2018-08-13T13:39:03.272Z,660.00
2018-08-13T13:40:56.223Z,652.00
2018-08-13T13:41:56.232Z,608.00
2018-08-13T13:43:49.150Z,512.00
2018-08-13T13:44:49.165Z,472.00
2018-08-13T13:46:42.113Z,396.00
2018-08-13T13:47:42.114Z,388.00
2018-08-13T13:49:35.073Z,404.00
2018-08-13T13:50:35.074Z,432.00
2018-08-13T13:52:28.000Z,524.00
2018-08-13T13:53:28.020Z,592.00
2018-08-13T13:55:20.970Z,744.00
2018-08-13T13:56:20.964Z,844.00
2018-08-13T13:58:13.903Z,1092.00
2018-08-13T13:59:13.914Z,1260.00
2018-08-13T14:01:06.863Z,1684.00
2018-08-13T14:02:06.864Z,1960.00
2018-08-13T14:03:59.789Z,2848.00
2018-08-13T14:04:59.812Z,3608.00
2018-08-13T14:06:52.759Z,4820.00
2018-08-13T14:07:52.759Z,5164.00
2018-08-13T14:09:45.687Z,5520.00
2018-08-13T14:10:45.701Z,5552.00
2018-08-13T14:12:38.656Z,5016.00
2018-08-13T14:13:38.656Z,4632.00
2018-08-13T14:15:31.607Z,4004.00
2018-08-13T14:16:31.600Z,3740.00
2018-08-13T14:18:24.537Z,3276.00
2018-08-13T14:19:24.556Z,3204.00
2018-08-13T14:21:17.508Z,3116.00
2018-08-13T14:22:17.500Z,3224.00
2018-08-13T14:24:10.433Z,4160.00
2018-08-13T14:25:10.448Z,3352.00
2018-08-13T14:27:03.399Z,3812.00
2018-08-13T14:28:03.423Z,3376.00
2018-08-13T14:29:56.328Z,3236.00
2018-08-13T14:30:56.344Z,3180.00
2018-08-13T14:32:49.305Z,2916.00
2018-08-13T14:33:49.295Z,2692.00
2018-08-13T14:35:42.270Z,2564.00
2018-08-13T14:36:42.245Z,2524.00
2018-08-13T14:38:35.259Z,2548.00
2018-08-13T14:39:35.265Z,2484.00
2018-08-13T14:41:28.268Z,2380.00
2018-08-13T14:42:28.216Z,2308.00
2018-08-13T14:44:21.167Z,2124.00
2018-08-13T14:45:21.207Z,1952.00
2018-08-13T14:47:14.159Z,1780.00
2018-08-13T14:48:14.149Z,1660.00
2018-08-13T14:50:07.079Z,1484.00
2018-08-13T14:51:07.146Z,1392.00
2018-08-13T14:53:00.056Z,1336.00
2018-08-13T14:54:00.047Z,1300.00
2018-08-13T14:55:52.998Z,1268.00
2018-08-13T14:56:52.993Z,1244.00
2018-08-13T14:58:45.922Z,1156.00
2018-08-13T14:59:45.942Z,1108.00
2018-08-13T15:01:38.897Z,976.00
2018-08-13T15:02:38.886Z,884.00
2018-08-13T15:04:31.817Z,744.00
2018-08-13T15:05:31.856Z,684.00
2018-08-13T15:07:24.789Z,628.00
2018-08-13T15:08:24.783Z,632.00
2018-08-13T15:10:17.716Z,680.00
2018-08-13T15:11:17.731Z,732.00
2018-08-13T15:13:10.697Z,876.00
2018-08-13T15:14:10.675Z,964.00
2018-08-13T15:16:03.629Z,1200.00
2018-08-13T15:17:03.630Z,1360.00
2018-08-13T15:18:56.554Z,1744.00
2018-08-13T15:19:56.569Z,2020.00
2018-08-13T15:21:49.522Z,2520.00
2018-08-13T15:22:49.538Z,2716.00
2018-08-13T15:24:42.458Z,3416.00
2018-08-13T15:25:42.475Z,3424.00
2018-08-13T15:27:35.630Z,4152.00
2018-08-13T15:28:35.422Z,3872.00
2018-08-13T15:30:28.352Z,4228.00
2018-08-13T15:31:28.372Z,4432.00
2018-08-13T15:33:21.356Z,3776.00
2018-08-13T15:34:21.315Z,3828.00
2018-08-13T15:36:14.267Z,4148.00
2018-08-13T15:37:14.271Z,3836.00
2018-08-13T15:39:07.196Z,3628.00
2018-08-13T15:40:07.218Z,3468.00
2018-08-13T15:42:00.163Z,2868.00
2018-08-13T15:43:00.158Z,2728.00
2018-08-13T15:44:53.091Z,2516.00
2018-08-13T15:45:53.107Z,2480.00
2018-08-13T15:47:46.074Z,1672.00
2018-08-13T15:48:46.060Z,1676.00
2018-08-13T15:50:38.989Z,2188.00
2018-08-13T15:51:39.012Z,2188.00
2018-08-13T15:53:31.988Z,2116.00
2018-08-13T15:54:31.956Z,2104.00
2018-08-13T15:56:24.907Z,2088.00
2018-08-13T15:57:24.904Z,2048.00
2018-08-13T15:59:17.842Z,1928.00
2018-08-13T16:00:17.856Z,1876.00
2018-08-13T16:02:10.807Z,1868.00
2018-08-13T16:03:10.803Z,1860.00
2018-08-13T16:05:03.740Z,1908.00
2018-08-13T16:06:03.753Z,1864.00
2018-08-13T16:07:56.730Z,2052.00
2018-08-13T16:08:56.707Z,1940.00
2018-08-13T16:10:49.647Z,1480.00
2018-08-13T16:11:49.662Z,1848.00
2018-08-13T16:13:42.613Z,1828.00
2018-08-13T16:14:42.612Z,1824.00
2018-08-13T16:16:35.564Z,1740.00
2018-08-13T16:17:35.557Z,1620.00
2018-08-13T16:19:28.503Z,1572.00
2018-08-13T16:20:28.521Z,1520.00
2018-08-13T16:22:21.473Z,1496.00
2018-08-13T16:23:21.471Z,1448.00
2018-08-13T16:25:14.399Z,1196.00
2018-08-13T16:26:14.418Z,1220.00
2018-08-13T16:28:07.366Z,1168.00
2018-08-13T16:29:07.361Z,1076.00
2018-08-13T16:31:00.293Z,1148.00
2018-08-13T16:32:00.309Z,1196.00
2018-08-13T16:33:53.299Z,1192.00
2018-08-13T16:34:53.306Z,1088.00
2018-08-13T16:36:46.245Z,1048.00
2018-08-13T16:37:46.239Z,1016.00
2018-08-13T16:39:39.168Z,924.00
2018-08-13T16:40:39.187Z,916.00
2018-08-13T16:42:32.137Z,940.00
2018-08-13T16:43:32.134Z,952.00
2018-08-13T16:45:25.069Z,908.00
2018-08-13T16:46:25.085Z,920.00
2018-08-13T16:48:18.044Z,860.00
2018-08-13T16:49:18.036Z,808.00
2018-08-13T16:51:10.975Z,756.00
2018-08-13T16:52:10.983Z,760.00
2018-08-13T16:54:03.935Z,752.00
2018-08-13T16:55:03.933Z,752.00
2018-08-13T16:56:56.881Z,736.00
2018-08-13T16:57:56.880Z,744.00
2018-08-13T16:59:49.810Z,748.00
2018-08-13T17:01:22.649Z,772.00
2018-08-13T17:02:22.892Z,796.00
2018-08-13T17:04:15.356Z,816.00
2018-08-13T17:05:15.351Z,840.00
2018-08-13T17:07:08.304Z,864.00
2018-08-13T17:08:08.313Z,884.00
2018-08-13T17:10:01.244Z,936.00
2018-08-13T17:11:01.253Z,956.00
2018-08-13T17:12:54.221Z,976.00
2018-08-13T17:13:54.251Z,1000.00
2018-08-13T17:15:47.133Z,1064.00
2018-08-13T17:16:47.150Z,1104.00
2018-08-13T17:18:40.599Z,1236.00
2018-08-13T17:19:40.597Z,1204.00
2018-08-13T17:21:33.529Z,1104.00
2018-08-13T17:22:33.542Z,1100.00
2018-08-13T17:24:26.510Z,1124.00
2018-08-13T17:25:26.497Z,1180.00
2018-08-13T17:27:19.439Z,1244.00
2018-08-13T17:28:19.506Z,1256.00
2018-08-13T17:30:12.371Z,1240.00
2018-08-13T17:31:12.385Z,1224.00
2018-08-13T17:33:05.345Z,1208.00
2018-08-13T17:34:05.551Z,1148.00
2018-08-13T17:35:58.277Z,1028.00
2018-08-13T17:36:58.298Z,956.00
2018-08-13T17:38:51.246Z,828.00
2018-08-13T17:39:51.240Z,744.00
2018-08-13T17:41:44.180Z,620.00
2018-08-13T17:42:44.214Z,568.00
2018-08-13T17:44:37.158Z,488.00
2018-08-13T17:45:37.156Z,472.00
2018-08-13T17:47:30.101Z,432.00
2018-08-13T17:48:30.101Z,420.00
2018-08-13T17:50:23.037Z,408.00
2018-08-13T17:51:23.046Z,400.00
2018-08-13T17:53:15.992Z,392.00
2018-08-13T17:54:15.988Z,388.00
2018-08-13T17:56:08.919Z,384.00
2018-08-13T17:57:08.940Z,384.00
2018-08-13T17:59:01.884Z,384.00
2018-08-13T18:00:01.881Z,388.00
2018-08-13T18:01:54.866Z,380.00
2018-08-13T18:02:54.829Z,380.00
2018-08-13T18:04:47.785Z,372.00
2018-08-13T18:05:47.777Z,368.00
2018-08-13T18:07:40.721Z,368.00
2018-08-13T18:08:40.726Z,368.00
2018-08-13T18:10:33.651Z,364.00
2018-08-13T18:11:33.666Z,356.00
2018-08-13T18:13:26.627Z,320.00
2018-08-13T18:14:26.616Z,304.00
2018-08-13T18:16:19.549Z,288.00
2018-08-13T18:17:19.568Z,280.00
2018-08-13T18:19:12.516Z,268.00
2018-08-13T18:20:12.509Z,256.00
2018-08-13T18:22:05.439Z,248.00
2018-08-13T18:23:05.459Z,236.00
2018-08-13T18:24:58.405Z,232.00